Klemme/'s Corner

Nearby METAR Reports

 

KSJC - San Jose, California, USA
Distance from station: NE 9mi, 14km
Updated: Tue, Feb-20-2018 9:53am EST
Few Clouds
Few Clouds
 Wind from SSE
Wind: SSE 3 mph , 6 km/h
Temperature: 36°F , 2°C
Dew Point: 28°F , -2°C
Humidity: 75%
Barometer: 30.23 inHg , 1023.7 hPa
Clouds: Few Clouds
Visibility: 10 miles , 16 km
Cloud details: Few Clouds 1500 ft
2018/02/20 14:53 KSJC 201453Z 15003KT 10SM FEW015 02/M02 A3023 RMK AO2 SLP237 T00171022 53013
KNUQ - Moffett Nas/Mtn, California, USA
Distance from station: N 9mi, 14km
Updated: Tue, Feb-20-2018 9:56am EST
Clear
Clear
 Wind from calm
Wind: Calm
Temperature: 36°F , 2°C
Dew Point: 28°F , -2°C
Humidity: 75%
Barometer: 30.24 inHg , 1024 hPa
Clouds: Clear
Visibility: 10 miles , 16 km
2018/02/20 14:56 KNUQ 201456Z 00000KT 10SM CLR 02/M02 A3024 RMK AO2 SLP243 T00221017 53015
 
KPAO - Palo Alto, California, USA
Distance from station: NNW 14mi, 23km
Updated: Tue, Feb-20-2018 9:47am EST
Clear
Clear
 Wind from calm
Wind: Calm
Clouds: Clear
Visibility: 10 miles , 16 km
2018/02/20 14:47 KPAO 201447Z 00000KT 10SM SKC --/-- A3023
KRHV - San Jose/Reid, California, USA
Distance from station: ENE 12mi, 19km
Updated: Tue, Feb-20-2018 9:47am EST
Clear
Clear
 Wind from calm
Wind: Calm
Temperature: 34°F , 1°C
Dew Point: 28°F , -2°C
Humidity: 81%
Barometer: 30.21 inHg , 1023 hPa
Clouds: Clear
Visibility: 10 miles , 16 km
2018/02/20 14:47 KRHV 201447Z 00000KT 10SM SKC 01/M02 A3021
 
KOAK - Oakland, California, USA
Distance from station: NNW 31mi, 50km
Updated: Tue, Feb-20-2018 9:53am EST
Few Clouds
Few Clouds
 Wind from NE
Wind: NE 5 mph , 7 km/h
Temperature: 32°F , 0°C
Wind Chill: 27°F , -3°C
Dew Point: 28°F , -2°C
Humidity: 87%
Barometer: 30.24 inHg , 1024 hPa
Clouds: Few Clouds
Visibility: 10 miles , 16 km
Cloud details: Few Clouds 20000 ft
2018/02/20 14:53 KOAK 201453Z 04004KT 10SM FEW200 00/M02 A3024 RMK AO2 SLP238 T00001022 53015
KSQL - San Carlos Airpo, California, USA
Distance from station: NW 21mi, 34km
Updated: Tue, Feb-20-2018 9:55am EST
Clear
Clear
 Wind from calm
Wind: Calm
Temperature: 36°F , 2°C
Dew Point: 28°F , -2°C
Humidity: 75%
Barometer: 30.23 inHg , 1023.7 hPa
Clouds: Clear
Visibility: 10 miles , 16 km
2018/02/20 14:55 KSQL 201455Z AUTO 00000KT 10SM CLR 02/M02 A3023 RMK AO2
 
KSFO - San Francisco, California, USA
Distance from station: NW 30mi, 49km
Updated: Tue, Feb-20-2018 9:56am EST
Clear
Clear
 Wind from WSW
Wind: WSW 3 mph , 6 km/h
Temperature: 39°F , 4°C
Dew Point: 28°F , -2°C
Humidity: 65%
Barometer: 30.23 inHg , 1023.7 hPa
Clouds: Clear
Visibility: 10 miles , 16 km
2018/02/20 14:56 KSFO 201456Z 25003KT 10SM CLR 04/M02 A3023 RMK AO2 SLP235 T00391022 51014 $
KE16 - San Martin, California, USA
Distance from station: ESE 27mi, 43km
Updated: Tue, Feb-20-2018 10:15am EST
Clear
Clear
 Wind from calm
Wind: Calm
Temperature: 28°F , -2°C
Dew Point: 27°F , -3°C
Humidity: 93%
Barometer: 30.26 inHg , 1024.7 hPa
Clouds: Clear
Visibility: 10 miles , 16 km
2018/02/20 15:15 KE16 201515Z AUTO 00000KT 10SM CLR M02/M03 A3026 RMK AO2
 
KWVI - Watsonville, California, USA
Distance from station: SSE 27mi, 44km
Updated: Tue, Feb-20-2018 9:53am EST
Clear
Clear
 Wind from NW
Wind: NW 3 mph , 6 km/h
Temperature: 30°F , -1°C
Dew Point: 27°F , -3°C
Humidity: 86%
Barometer: 30.23 inHg , 1023.7 hPa
Clouds: Clear
Visibility: 9 miles , 14 km
2018/02/20 14:53 KWVI 201453Z AUTO 31003KT 9SM CLR M01/M03 A3023 RMK AO2 SLP238 T10061028 53014
KHAF - Half Moon Bay, California, USA
Distance from station: WNW 31mi, 50km
Updated: Tue, Feb-20-2018 10:15am EST
Clear
Clear
 Wind from calm
Wind: Calm
Temperature: 30°F , -1°C
Dew Point: 25°F , -4°C
Humidity: 80%
Barometer: 30.20 inHg , 1022.7 hPa
Clouds: Clear
Visibility: 10 miles , 16 km
2018/02/20 15:15 KHAF 201515Z AUTO 00000KT 10SM CLR M01/M04 A3020 RMK AO2
 
KHWD - Hayward, California, USA
Distance from station: N 28mi, 44km
Updated: Tue, Feb-20-2018 9:54am EST
Clear
Clear
 Wind from ENE
Wind: ENE 6 mph , 9 km/h
Temperature: 36°F , 2°C
Wind Chill: 31°F , -1°C
Dew Point: 23°F , -5°C
Humidity: 60%
Barometer: 30.23 inHg , 1023.7 hPa
Clouds: Clear
Visibility: 10 miles , 16 km
2018/02/20 14:54 KHWD 201454Z 06005KT 10SM CLR 02/M05 A3023 RMK AO2 SLP248 T00171050 52016
KLVK - Livermore, California, USA
Distance from station: NNE 31mi, 51km
Updated: Tue, Feb-20-2018 9:53am EST
Clear
Clear
 Wind from E
Wind: E 5 mph , 7 km/h
Temperature: 28°F , -2°C
Wind Chill: 22°F , -6°C
Dew Point: 25°F , -4°C
Humidity: 86%
Barometer: 30.22 inHg , 1023.4 hPa
Clouds: Clear
Visibility: 10 miles , 16 km
2018/02/20 14:53 KLVK 201453Z 08004KT 10SM CLR M02/M04 A3022 RMK AO2 SLP237 T10221044 53016 $